sensor_id;sensor_type;location;lat;lon;timestamp;temperature;humidity
14014;DHT22;49110;52.584;13.408;2024-01-30T00:00:31;6.20;92.50
14014;DHT22;49110;52.584;13.408;2024-01-30T00:01:32;6.20;92.40
14014;DHT22;49110;52.584;13.408;2024-01-30T00:02:32;6.10;92.30
14014;DHT22;49110;52.584;13.408;2024-01-30T00:03:33;6.10;92.40
14014;DHT22;49110;52.584;13.408;2024-01-30T00:04:34;6.00;92.40
14014;DHT22;49110;52.584;13.408;2024-01-30T00:05:34;6.00;92.50
14014;DHT22;49110;52.584;13.408;2024-01-30T00:06:35;6.10;92.50
14014;DHT22;49110;52.584;13.408;2024-01-30T00:07:35;6.00;92.50
14014;DHT22;49110;52.584;13.408;2024-01-30T00:08:36;6.10;92.50
14014;DHT22;49110;52.584;13.408;2024-01-30T00:09:38;6.10;92.60
14014;DHT22;49110;52.584;13.408;2024-01-30T00:10:40;6.10;92.60
14014;DHT22;49110;52.584;13.408;2024-01-30T00:11:40;6.10;92.90
14014;DHT22;49110;52.584;13.408;2024-01-30T00:12:41;6.20;92.80
14014;DHT22;49110;52.584;13.408;2024-01-30T00:13:41;6.10;92.50
14014;DHT22;49110;52.584;13.408;2024-01-30T00:14:42;6.10;92.40
14014;DHT22;49110;52.584;13.408;2024-01-30T00:15:46;6.00;92.50
14014;DHT22;49110;52.584;13.408;2024-01-30T00:16:46;5.90;92.50
14014;DHT22;49110;52.584;13.408;2024-01-30T00:17:47;5.90;92.60
14014;DHT22;49110;52.584;13.408;2024-01-30T00:18:48;5.90;92.70
14014;DHT22;49110;52.584;13.408;2024-01-30T00:19:48;5.90;92.80
14014;DHT22;49110;52.584;13.408;2024-01-30T00:20:49;5.90;92.70
14014;DHT22;49110;52.584;13.408;2024-01-30T00:21:49;6.00;92.90
14014;DHT22;49110;52.584;13.408;2024-01-30T00:22:50;6.00;92.70
14014;DHT22;49110;52.584;13.408;2024-01-30T00:23:50;6.00;92.60
14014;DHT22;49110;52.584;13.408;2024-01-30T00:24:51;6.10;92.50
14014;DHT22;49110;52.584;13.408;2024-01-30T00:25:51;6.00;92.50
14014;DHT22;49110;52.584;13.408;2024-01-30T00:26:52;6.10;92.60
14014;DHT22;49110;52.584;13.408;2024-01-30T00:27:52;6.10;92.60
14014;DHT22;49110;52.584;13.408;2024-01-30T00:28:53;6.10;92.50
14014;DHT22;49110;52.584;13.408;2024-01-30T00:29:53;6.10;92.60
14014;DHT22;49110;52.584;13.408;2024-01-30T00:30:54;6.10;92.60
14014;DHT22;49110;52.584;13.408;2024-01-30T00:31:54;6.10;92.50
14014;DHT22;49110;52.584;13.408;2024-01-30T00:32:55;6.10;92.60
14014;DHT22;49110;52.584;13.408;2024-01-30T00:33:55;6.10;92.50
14014;DHT22;49110;52.584;13.408;2024-01-30T00:34:56;6.00;92.50
14014;DHT22;49110;52.584;13.408;2024-01-30T00:35:56;5.90;92.50
14014;DHT22;49110;52.584;13.408;2024-01-30T00:36:57;5.90;92.60
14014;DHT22;49110;52.584;13.408;2024-01-30T00:37:57;5.90;92.60
14014;DHT22;49110;52.584;13.408;2024-01-30T00:38:58;5.80;92.70
14014;DHT22;49110;52.584;13.408;2024-01-30T00:39:58;5.80;92.70
14014;DHT22;49110;52.584;13.408;2024-01-30T00:40:59;5.80;92.70
14014;DHT22;49110;52.584;13.408;2024-01-30T00:41:59;5.70;92.70
14014;DHT22;49110;52.584;13.408;2024-01-30T00:43:00;5.70;92.80
14014;DHT22;49110;52.584;13.408;2024-01-30T00:44:00;5.70;92.90
14014;DHT22;49110;52.584;13.408;2024-01-30T00:45:01;5.70;93.00
14014;DHT22;49110;52.584;13.408;2024-01-30T00:46:01;5.70;93.10
14014;DHT22;49110;52.584;13.408;2024-01-30T00:47:02;5.70;92.90
14014;DHT22;49110;52.584;13.408;2024-01-30T00:48:03;5.70;92.90
14014;DHT22;49110;52.584;13.408;2024-01-30T00:49:04;5.70;92.80
14014;DHT22;49110;52.584;13.408;2024-01-30T00:50:05;5.70;92.80
14014;DHT22;49110;52.584;13.408;2024-01-30T00:51:06;5.70;93.00
14014;DHT22;49110;52.584;13.408;2024-01-30T00:52:06;5.70;92.90
14014;DHT22;49110;52.584;13.408;2024-01-30T00:53:07;5.80;92.90
14014;DHT22;49110;52.584;13.408;2024-01-30T00:54:07;5.80;92.80
14014;DHT22;49110;52.584;13.408;2024-01-30T00:55:08;5.80;92.80
14014;DHT22;49110;52.584;13.408;2024-01-30T00:56:08;5.80;92.80
14014;DHT22;49110;52.584;13.408;2024-01-30T00:57:09;5.80;92.70
14014;DHT22;49110;52.584;13.408;2024-01-30T00:58:09;5.80;92.80
14014;DHT22;49110;52.584;13.408;2024-01-30T00:59:11;5.80;93.20
14014;DHT22;49110;52.584;13.408;2024-01-30T01:00:12;5.80;93.00
14014;DHT22;49110;52.584;13.408;2024-01-30T01:01:12;5.90;92.90
14014;DHT22;49110;52.584;13.408;2024-01-30T01:02:13;5.80;93.10
14014;DHT22;49110;52.584;13.408;2024-01-30T01:03:15;5.90;92.80
14014;DHT22;49110;52.584;13.408;2024-01-30T01:04:16;5.80;92.80
14014;DHT22;49110;52.584;13.408;2024-01-30T01:05:17;5.80;92.80
14014;DHT22;49110;52.584;13.408;2024-01-30T01:06:19;5.80;92.70
14014;DHT22;49110;52.584;13.408;2024-01-30T01:07:19;5.80;92.70
14014;DHT22;49110;52.584;13.408;2024-01-30T01:08:19;5.80;93.10
14014;DHT22;49110;52.584;13.408;2024-01-30T01:09:20;5.80;92.80
14014;DHT22;49110;52.584;13.408;2024-01-30T01:10:21;5.80;92.80
14014;DHT22;49110;52.584;13.408;2024-01-30T01:11:21;5.90;92.80
14014;DHT22;49110;52.584;13.408;2024-01-30T01:12:22;5.90;92.80
14014;DHT22;49110;52.584;13.408;2024-01-30T01:13:23;5.90;92.70
14014;DHT22;49110;52.584;13.408;2024-01-30T01:14:23;5.90;92.80
14014;DHT22;49110;52.584;13.408;2024-01-30T01:15:24;5.90;92.80
14014;DHT22;49110;52.584;13.408;2024-01-30T01:16:24;5.90;92.70
14014;DHT22;49110;52.584;13.408;2024-01-30T01:17:25;5.90;92.70
14014;DHT22;49110;52.584;13.408;2024-01-30T01:18:25;5.90;92.70
14014;DHT22;49110;52.584;13.408;2024-01-30T01:19:25;5.90;92.70
14014;DHT22;49110;52.584;13.408;2024-01-30T01:20:26;5.80;92.70
14014;DHT22;49110;52.584;13.408;2024-01-30T01:21:27;5.90;92.80
14014;DHT22;49110;52.584;13.408;2024-01-30T01:22:28;5.80;92.80
14014;DHT22;49110;52.584;13.408;2024-01-30T01:23:28;5.80;92.80
14014;DHT22;49110;52.584;13.408;2024-01-30T01:24:31;5.80;92.80
14014;DHT22;49110;52.584;13.408;2024-01-30T01:25:32;5.90;92.80
14014;DHT22;49110;52.584;13.408;2024-01-30T01:26:32;5.90;92.80
14014;DHT22;49110;52.584;13.408;2024-01-30T01:27:32;5.90;92.80
14014;DHT22;49110;52.584;13.408;2024-01-30T01:28:34;5.90;92.80
14014;DHT22;49110;52.584;13.408;2024-01-30T01:29:35;5.90;92.80
14014;DHT22;49110;52.584;13.408;2024-01-30T01:30:35;5.90;92.80
14014;DHT22;49110;52.584;13.408;2024-01-30T01:31:36;5.90;92.80
14014;DHT22;49110;52.584;13.408;2024-01-30T01:32:40;5.80;92.80
14014;DHT22;49110;52.584;13.408;2024-01-30T01:33:45;5.80;92.80
14014;DHT22;49110;52.584;13.408;2024-01-30T01:34:45;5.80;92.80
14014;DHT22;49110;52.584;13.408;2024-01-30T01:35:46;5.90;92.80
14014;DHT22;49110;52.584;13.408;2024-01-30T01:36:46;5.90;92.80
14014;DHT22;49110;52.584;13.408;2024-01-30T01:37:47;5.90;92.80
14014;DHT22;49110;52.584;13.408;2024-01-30T01:38:47;5.90;92.80
14014;DHT22;49110;52.584;13.408;2024-01-30T01:39:47;5.90;92.70
14014;DHT22;49110;52.584;13.408;2024-01-30T01:40:48;5.90;92.80
14014;DHT22;49110;52.584;13.408;2024-01-30T01:41:48;6.00;92.80
14014;DHT22;49110;52.584;13.408;2024-01-30T01:42:50;6.00;92.80
14014;DHT22;49110;52.584;13.408;2024-01-30T01:43:52;6.00;92.90
14014;DHT22;49110;52.584;13.408;2024-01-30T01:44:52;6.00;92.80
14014;DHT22;49110;52.584;13.408;2024-01-30T01:45:53;5.90;92.80
14014;DHT22;49110;52.584;13.408;2024-01-30T01:46:54;6.00;92.90
14014;DHT22;49110;52.584;13.408;2024-01-30T01:47:55;5.90;92.70
14014;DHT22;49110;52.584;13.408;2024-01-30T01:48:56;5.90;92.80
14014;DHT22;49110;52.584;13.408;2024-01-30T01:49:57;5.90;92.60
14014;DHT22;49110;52.584;13.408;2024-01-30T01:50:58;5.90;92.70
14014;DHT22;49110;52.584;13.408;2024-01-30T01:51:59;5.80;92.80
14014;DHT22;49110;52.584;13.408;2024-01-30T01:53:01;5.80;92.80
14014;DHT22;49110;52.584;13.408;2024-01-30T01:54:04;5.80;92.80
14014;DHT22;49110;52.584;13.408;2024-01-30T01:55:05;5.80;92.80
14014;DHT22;49110;52.584;13.408;2024-01-30T01:56:06;5.70;92.80
14014;DHT22;49110;52.584;13.408;2024-01-30T01:57:07;5.70;92.90
14014;DHT22;49110;52.584;13.408;2024-01-30T01:58:08;5.80;92.90
14014;DHT22;49110;52.584;13.408;2024-01-30T01:59:09;5.80;92.80
14014;DHT22;49110;52.584;13.408;2024-01-30T02:00:10;5.80;92.90
14014;DHT22;49110;52.584;13.408;2024-01-30T02:01:13;5.80;92.80
14014;DHT22;49110;52.584;13.408;2024-01-30T02:02:14;5.80;92.80
14014;DHT22;49110;52.584;13.408;2024-01-30T02:03:18;5.70;92.70
14014;DHT22;49110;52.584;13.408;2024-01-30T02:04:21;5.70;92.90
14014;DHT22;49110;52.584;13.408;2024-01-30T02:05:22;5.60;93.00
14014;DHT22;49110;52.584;13.408;2024-01-30T02:06:23;5.60;93.10
14014;DHT22;49110;52.584;13.408;2024-01-30T02:07:24;5.50;93.10
14014;DHT22;49110;52.584;13.408;2024-01-30T02:08:24;5.50;93.10
14014;DHT22;49110;52.584;13.408;2024-01-30T02:09:25;5.50;93.20
14014;DHT22;49110;52.584;13.408;2024-01-30T02:10:25;5.50;93.70
14014;DHT22;49110;52.584;13.408;2024-01-30T02:11:26;5.50;93.40
14014;DHT22;49110;52.584;13.408;2024-01-30T02:12:28;5.50;93.50
14014;DHT22;49110;52.584;13.408;2024-01-30T02:13:28;5.40;93.50
14014;DHT22;49110;52.584;13.408;2024-01-30T02:14:29;5.40;93.50
14014;DHT22;49110;52.584;13.408;2024-01-30T02:15:29;5.40;93.60
14014;DHT22;49110;52.584;13.408;2024-01-30T02:16:30;5.50;93.50
14014;DHT22;49110;52.584;13.408;2024-01-30T02:17:31;5.60;93.50
14014;DHT22;49110;52.584;13.408;2024-01-30T02:18:31;5.60;93.40
14014;DHT22;49110;52.584;13.408;2024-01-30T02:19:32;5.70;93.40
14014;DHT22;49110;52.584;13.408;2024-01-30T02:20:35;5.80;93.30
14014;DHT22;49110;52.584;13.408;2024-01-30T02:21:36;5.80;93.20
14014;DHT22;49110;52.584;13.408;2024-01-30T02:22:37;5.80;93.20
14014;DHT22;49110;52.584;13.408;2024-01-30T02:23:38;5.80;93.30
14014;DHT22;49110;52.584;13.408;2024-01-30T02:24:39;5.80;93.20
14014;DHT22;49110;52.584;13.408;2024-01-30T02:25:41;5.80;93.10
14014;DHT22;49110;52.584;13.408;2024-01-30T02:26:44;5.80;93.10
14014;DHT22;49110;52.584;13.408;2024-01-30T02:27:45;5.80;93.10
14014;DHT22;49110;52.584;13.408;2024-01-30T02:28:45;5.90;93.00
14014;DHT22;49110;52.584;13.408;2024-01-30T02:29:46;5.80;93.00
14014;DHT22;49110;52.584;13.408;2024-01-30T02:30:46;5.80;93.10
14014;DHT22;49110;52.584;13.408;2024-01-30T02:31:47;5.80;93.10
14014;DHT22;49110;52.584;13.408;2024-01-30T02:32:47;5.80;93.10
14014;DHT22;49110;52.584;13.408;2024-01-30T02:33:48;5.70;93.10
14014;DHT22;49110;52.584;13.408;2024-01-30T02:34:48;5.70;93.10
14014;DHT22;49110;52.584;13.408;2024-01-30T02:35:49;5.70;93.20
14014;DHT22;49110;52.584;13.408;2024-01-30T02:36:49;5.70;93.30
14014;DHT22;49110;52.584;13.408;2024-01-30T02:37:50;5.60;93.20
14014;DHT22;49110;52.584;13.408;2024-01-30T02:38:50;5.60;93.30
14014;DHT22;49110;52.584;13.408;2024-01-30T02:39:51;5.60;93.30
14014;DHT22;49110;52.584;13.408;2024-01-30T02:40:51;5.50;93.30
14014;DHT22;49110;52.584;13.408;2024-01-30T02:41:52;5.50;93.50
14014;DHT22;49110;52.584;13.408;2024-01-30T02:42:52;5.50;93.60
14014;DHT22;49110;52.584;13.408;2024-01-30T02:43:53;5.40;93.60
14014;DHT22;49110;52.584;13.408;2024-01-30T02:44:53;5.40;93.60
14014;DHT22;49110;52.584;13.408;2024-01-30T02:45:54;5.40;93.70
14014;DHT22;49110;52.584;13.408;2024-01-30T02:46:54;5.40;93.90
14014;DHT22;49110;52.584;13.408;2024-01-30T02:47:55;5.50;93.80
14014;DHT22;49110;52.584;13.408;2024-01-30T02:48:55;5.50;93.70
14014;DHT22;49110;52.584;13.408;2024-01-30T02:49:56;5.50;93.70
14014;DHT22;49110;52.584;13.408;2024-01-30T02:50:56;5.50;93.70
14014;DHT22;49110;52.584;13.408;2024-01-30T02:51:58;5.40;93.60
14014;DHT22;49110;52.584;13.408;2024-01-30T02:52:58;5.30;93.70
14014;DHT22;49110;52.584;13.408;2024-01-30T02:53:59;5.30;93.80
14014;DHT22;49110;52.584;13.408;2024-01-30T02:54:59;5.40;93.90
14014;DHT22;49110;52.584;13.408;2024-01-30T02:56:03;5.40;93.90
14014;DHT22;49110;52.584;13.408;2024-01-30T02:57:03;5.40;93.70
14014;DHT22;49110;52.584;13.408;2024-01-30T02:58:04;5.50;93.80
14014;DHT22;49110;52.584;13.408;2024-01-30T02:59:04;5.50;93.70
14014;DHT22;49110;52.584;13.408;2024-01-30T03:00:06;5.50;93.70
14014;DHT22;49110;52.584;13.408;2024-01-30T03:01:07;5.50;93.70
14014;DHT22;49110;52.584;13.408;2024-01-30T03:02:07;5.40;93.60
14014;DHT22;49110;52.584;13.408;2024-01-30T03:03:08;5.40;93.70
14014;DHT22;49110;52.584;13.408;2024-01-30T03:04:08;5.30;93.90
14014;DHT22;49110;52.584;13.408;2024-01-30T03:05:09;5.40;94.00
14014;DHT22;49110;52.584;13.408;2024-01-30T03:06:09;5.40;93.90
14014;DHT22;49110;52.584;13.408;2024-01-30T03:07:10;5.40;93.70
14014;DHT22;49110;52.584;13.408;2024-01-30T03:08:10;5.40;93.60
14014;DHT22;49110;52.584;13.408;2024-01-30T03:09:11;5.40;93.70
14014;DHT22;49110;52.584;13.408;2024-01-30T03:10:11;5.40;93.80
14014;DHT22;49110;52.584;13.408;2024-01-30T03:11:12;5.40;93.90
14014;DHT22;49110;52.584;13.408;2024-01-30T03:12:12;5.30;93.90
14014;DHT22;49110;52.584;13.408;2024-01-30T03:13:12;5.30;93.90
14014;DHT22;49110;52.584;13.408;2024-01-30T03:14:13;5.30;94.00
14014;DHT22;49110;52.584;13.408;2024-01-30T03:15:13;5.30;94.00
14014;DHT22;49110;52.584;13.408;2024-01-30T03:16:14;5.20;94.00
14014;DHT22;49110;52.584;13.408;2024-01-30T03:17:15;5.30;94.10
14014;DHT22;49110;52.584;13.408;2024-01-30T03:18:15;5.30;94.00
14014;DHT22;49110;52.584;13.408;2024-01-30T03:19:16;5.30;94.00
14014;DHT22;49110;52.584;13.408;2024-01-30T03:20:16;5.30;94.00
14014;DHT22;49110;52.584;13.408;2024-01-30T03:21:17;5.30;94.00
14014;DHT22;49110;52.584;13.408;2024-01-30T03:22:17;5.40;94.00
14014;DHT22;49110;52.584;13.408;2024-01-30T03:23:18;5.40;94.00
14014;DHT22;49110;52.584;13.408;2024-01-30T03:24:18;5.50;94.00
14014;DHT22;49110;52.584;13.408;2024-01-30T03:25:19;5.50;93.90
14014;DHT22;49110;52.584;13.408;2024-01-30T03:26:19;5.50;93.80
14014;DHT22;49110;52.584;13.408;2024-01-30T03:27:20;5.60;93.90
14014;DHT22;49110;52.584;13.408;2024-01-30T03:28:20;5.50;93.70
14014;DHT22;49110;52.584;13.408;2024-01-30T03:29:20;5.60;93.80
14014;DHT22;49110;52.584;13.408;2024-01-30T03:30:21;5.50;93.70
14014;DHT22;49110;52.584;13.408;2024-01-30T03:31:21;5.50;93.80
14014;DHT22;49110;52.584;13.408;2024-01-30T03:32:22;5.40;93.70
14014;DHT22;49110;52.584;13.408;2024-01-30T03:33:23;5.50;93.80
14014;DHT22;49110;52.584;13.408;2024-01-30T03:34:23;5.50;93.80
14014;DHT22;49110;52.584;13.408;2024-01-30T03:35:24;5.50;93.70
14014;DHT22;49110;52.584;13.408;2024-01-30T03:36:24;5.50;93.70
14014;DHT22;49110;52.584;13.408;2024-01-30T03:37:24;5.50;93.80
14014;DHT22;49110;52.584;13.408;2024-01-30T03:38:25;5.50;93.90
14014;DHT22;49110;52.584;13.408;2024-01-30T03:39:25;5.50;93.80
14014;DHT22;49110;52.584;13.408;2024-01-30T03:40:26;5.40;93.70
14014;DHT22;49110;52.584;13.408;2024-01-30T03:41:26;5.40;93.80
14014;DHT22;49110;52.584;13.408;2024-01-30T03:42:27;5.40;93.90
14014;DHT22;49110;52.584;13.408;2024-01-30T03:43:27;5.50;94.00
14014;DHT22;49110;52.584;13.408;2024-01-30T03:44:28;5.50;93.90
14014;DHT22;49110;52.584;13.408;2024-01-30T03:45:28;5.50;93.80
14014;DHT22;49110;52.584;13.408;2024-01-30T03:46:29;5.50;93.80
14014;DHT22;49110;52.584;13.408;2024-01-30T03:47:29;5.60;93.90
14014;DHT22;49110;52.584;13.408;2024-01-30T03:48:30;5.60;93.90
14014;DHT22;49110;52.584;13.408;2024-01-30T03:49:31;5.60;93.80
14014;DHT22;49110;52.584;13.408;2024-01-30T03:50:31;5.60;93.80
14014;DHT22;49110;52.584;13.408;2024-01-30T03:51:32;5.60;93.80
14014;DHT22;49110;52.584;13.408;2024-01-30T03:52:32;5.60;94.20
14014;DHT22;49110;52.584;13.408;2024-01-30T03:53:33;5.50;93.80
14014;DHT22;49110;52.584;13.408;2024-01-30T03:54:33;5.60;93.90
14014;DHT22;49110;52.584;13.408;2024-01-30T03:55:34;5.60;93.80
14014;DHT22;49110;52.584;13.408;2024-01-30T03:56:35;5.50;93.80
14014;DHT22;49110;52.584;13.408;2024-01-30T03:57:35;5.50;93.90
14014;DHT22;49110;52.584;13.408;2024-01-30T03:58:35;5.50;93.90
14014;DHT22;49110;52.584;13.408;2024-01-30T03:59:36;5.60;94.00
14014;DHT22;49110;52.584;13.408;2024-01-30T04:00:37;5.60;93.90
14014;DHT22;49110;52.584;13.408;2024-01-30T04:01:37;5.60;93.90
14014;DHT22;49110;52.584;13.408;2024-01-30T04:02:38;5.60;93.90
14014;DHT22;49110;52.584;13.408;2024-01-30T04:03:38;5.50;93.90
14014;DHT22;49110;52.584;13.408;2024-01-30T04:04:39;5.50;94.00
14014;DHT22;49110;52.584;13.408;2024-01-30T04:05:39;5.50;94.00
14014;DHT22;49110;52.584;13.408;2024-01-30T04:06:40;5.50;94.10
14014;DHT22;49110;52.584;13.408;2024-01-30T04:07:40;5.50;94.40
14014;DHT22;49110;52.584;13.408;2024-01-30T04:08:41;5.50;94.00
14014;DHT22;49110;52.584;13.408;2024-01-30T04:09:41;5.50;94.10
14014;DHT22;49110;52.584;13.408;2024-01-30T04:10:42;5.50;94.10
14014;DHT22;49110;52.584;13.408;2024-01-30T04:11:42;5.50;94.20
14014;DHT22;49110;52.584;13.408;2024-01-30T04:12:43;5.50;94.10
14014;DHT22;49110;52.584;13.408;2024-01-30T04:13:43;5.50;94.10
14014;DHT22;49110;52.584;13.408;2024-01-30T04:14:44;5.50;94.10
14014;DHT22;49110;52.584;13.408;2024-01-30T04:15:44;5.60;94.20
14014;DHT22;49110;52.584;13.408;2024-01-30T04:16:45;5.60;94.10
14014;DHT22;49110;52.584;13.408;2024-01-30T04:17:45;5.60;94.10
14014;DHT22;49110;52.584;13.408;2024-01-30T04:18:46;5.60;94.00
14014;DHT22;49110;52.584;13.408;2024-01-30T04:19:46;5.50;94.10
14014;DHT22;49110;52.584;13.408;2024-01-30T04:20:47;5.40;94.20
14014;DHT22;49110;52.584;13.408;2024-01-30T04:21:47;5.40;94.20
14014;DHT22;49110;52.584;13.408;2024-01-30T04:22:47;5.30;94.30
14014;DHT22;49110;52.584;13.408;2024-01-30T04:23:48;5.30;94.40
14014;DHT22;49110;52.584;13.408;2024-01-30T04:24:49;5.30;94.40
14014;DHT22;49110;52.584;13.408;2024-01-30T04:25:49;5.40;94.50
14014;DHT22;49110;52.584;13.408;2024-01-30T04:26:50;5.30;94.40
14014;DHT22;49110;52.584;13.408;2024-01-30T04:27:50;5.30;94.40
14014;DHT22;49110;52.584;13.408;2024-01-30T04:28:50;5.30;94.50
14014;DHT22;49110;52.584;13.408;2024-01-30T04:29:51;5.30;94.50
14014;DHT22;49110;52.584;13.408;2024-01-30T04:30:51;5.30;94.50
14014;DHT22;49110;52.584;13.408;2024-01-30T04:31:52;5.30;94.60
14014;DHT22;49110;52.584;13.408;2024-01-30T04:32:52;5.30;94.60
14014;DHT22;49110;52.584;13.408;2024-01-30T04:33:53;5.30;94.60
14014;DHT22;49110;52.584;13.408;2024-01-30T04:34:53;5.30;94.60
14014;DHT22;49110;52.584;13.408;2024-01-30T04:35:54;5.30;94.60
14014;DHT22;49110;52.584;13.408;2024-01-30T04:36:54;5.30;94.70
14014;DHT22;49110;52.584;13.408;2024-01-30T04:37:55;5.30;95.00
14014;DHT22;49110;52.584;13.408;2024-01-30T04:38:55;5.30;94.70
14014;DHT22;49110;52.584;13.408;2024-01-30T04:39:56;5.30;94.60
14014;DHT22;49110;52.584;13.408;2024-01-30T04:40:57;5.20;94.60
14014;DHT22;49110;52.584;13.408;2024-01-30T04:41:57;5.30;94.70
14014;DHT22;49110;52.584;13.408;2024-01-30T04:42:58;5.30;94.80
14014;DHT22;49110;52.584;13.408;2024-01-30T04:43:58;5.40;95.10
14014;DHT22;49110;52.584;13.408;2024-01-30T04:44:58;5.40;94.60
14014;DHT22;49110;52.584;13.408;2024-01-30T04:45:59;5.40;94.60
14014;DHT22;49110;52.584;13.408;2024-01-30T04:46:59;5.50;94.50
14014;DHT22;49110;52.584;13.408;2024-01-30T04:48:01;5.50;94.60
14014;DHT22;49110;52.584;13.408;2024-01-30T04:49:02;5.50;94.50
14014;DHT22;49110;52.584;13.408;2024-01-30T04:50:04;5.40;94.50
14014;DHT22;49110;52.584;13.408;2024-01-30T04:51:05;5.40;94.60
14014;DHT22;49110;52.584;13.408;2024-01-30T04:52:06;5.40;94.90
14014;DHT22;49110;52.584;13.408;2024-01-30T04:53:07;5.50;94.70
14014;DHT22;49110;52.584;13.408;2024-01-30T04:54:08;5.50;94.60
14014;DHT22;49110;52.584;13.408;2024-01-30T04:55:08;5.50;94.50
14014;DHT22;49110;52.584;13.408;2024-01-30T04:56:09;5.40;94.40
14014;DHT22;49110;52.584;13.408;2024-01-30T04:57:09;5.30;94.50
14014;DHT22;49110;52.584;13.408;2024-01-30T04:58:12;5.30;94.60
14014;DHT22;49110;52.584;13.408;2024-01-30T04:59:12;5.20;94.60
14014;DHT22;49110;52.584;13.408;2024-01-30T05:00:13;5.20;94.70
14014;DHT22;49110;52.584;13.408;2024-01-30T05:01:17;5.20;94.80
14014;DHT22;49110;52.584;13.408;2024-01-30T05:02:18;5.20;94.90
14014;DHT22;49110;52.584;13.408;2024-01-30T05:03:21;5.30;94.90
14014;DHT22;49110;52.584;13.408;2024-01-30T05:04:23;5.30;94.80
14014;DHT22;49110;52.584;13.408;2024-01-30T05:05:23;5.30;94.80
14014;DHT22;49110;52.584;13.408;2024-01-30T05:06:25;5.20;94.80
14014;DHT22;49110;52.584;13.408;2024-01-30T05:07:26;5.30;94.90
14014;DHT22;49110;52.584;13.408;2024-01-30T05:08:26;5.20;94.80
14014;DHT22;49110;52.584;13.408;2024-01-30T05:09:27;5.30;94.90
14014;DHT22;49110;52.584;13.408;2024-01-30T05:10:27;5.20;94.80
14014;DHT22;49110;52.584;13.408;2024-01-30T05:11:29;5.20;94.80
14014;DHT22;49110;52.584;13.408;2024-01-30T05:12:29;5.10;94.90
14014;DHT22;49110;52.584;13.408;2024-01-30T05:13:31;5.00;95.00
14014;DHT22;49110;52.584;13.408;2024-01-30T05:14:31;5.00;95.20
14014;DHT22;49110;52.584;13.408;2024-01-30T05:15:32;5.10;95.20
14014;DHT22;49110;52.584;13.408;2024-01-30T05:16:32;5.10;95.50
14014;DHT22;49110;52.584;13.408;2024-01-30T05:17:33;5.10;95.20
14014;DHT22;49110;52.584;13.408;2024-01-30T05:18:33;5.20;95.20
14014;DHT22;49110;52.584;13.408;2024-01-30T05:19:34;5.20;95.10
14014;DHT22;49110;52.584;13.408;2024-01-30T05:20:34;5.30;95.10
14014;DHT22;49110;52.584;13.408;2024-01-30T05:21:35;5.30;95.10
14014;DHT22;49110;52.584;13.408;2024-01-30T05:22:35;5.30;95.10
14014;DHT22;49110;52.584;13.408;2024-01-30T05:23:36;5.30;95.00
14014;DHT22;49110;52.584;13.408;2024-01-30T05:24:37;5.40;95.00
14014;DHT22;49110;52.584;13.408;2024-01-30T05:25:37;5.40;95.00
14014;DHT22;49110;52.584;13.408;2024-01-30T05:26:38;5.40;94.90
14014;DHT22;49110;52.584;13.408;2024-01-30T05:27:38;5.30;94.80
14014;DHT22;49110;52.584;13.408;2024-01-30T05:28:39;5.40;95.00
14014;DHT22;49110;52.584;13.408;2024-01-30T05:29:40;5.40;94.90
14014;DHT22;49110;52.584;13.408;2024-01-30T05:30:41;5.40;95.00
14014;DHT22;49110;52.584;13.408;2024-01-30T05:31:41;5.40;94.90
14014;DHT22;49110;52.584;13.408;2024-01-30T05:32:43;5.30;94.90
14014;DHT22;49110;52.584;13.408;2024-01-30T05:33:44;5.30;94.90
14014;DHT22;49110;52.584;13.408;2024-01-30T05:34:44;5.20;95.00
14014;DHT22;49110;52.584;13.408;2024-01-30T05:35:45;5.10;95.10
14014;DHT22;49110;52.584;13.408;2024-01-30T05:36:46;5.20;95.20
14014;DHT22;49110;52.584;13.408;2024-01-30T05:37:47;5.20;95.30
14014;DHT22;49110;52.584;13.408;2024-01-30T05:38:48;5.20;95.30
14014;DHT22;49110;52.584;13.408;2024-01-30T05:39:49;5.20;95.30
14014;DHT22;49110;52.584;13.408;2024-01-30T05:40:49;5.20;95.20
14014;DHT22;49110;52.584;13.408;2024-01-30T05:41:50;5.30;95.30
14014;DHT22;49110;52.584;13.408;2024-01-30T05:42:50;5.30;95.20
14014;DHT22;49110;52.584;13.408;2024-01-30T05:43:51;5.40;95.20
14014;DHT22;49110;52.584;13.408;2024-01-30T05:44:51;5.30;94.80
14014;DHT22;49110;52.584;13.408;2024-01-30T05:45:52;5.30;95.20
14014;DHT22;49110;52.584;13.408;2024-01-30T05:46:53;5.20;95.20
14014;DHT22;49110;52.584;13.408;2024-01-30T05:47:54;5.20;95.20
14014;DHT22;49110;52.584;13.408;2024-01-30T05:48:54;5.20;95.20
14014;DHT22;49110;52.584;13.408;2024-01-30T05:49:55;5.20;95.20
14014;DHT22;49110;52.584;13.408;2024-01-30T05:50:55;5.20;95.30
14014;DHT22;49110;52.584;13.408;2024-01-30T05:51:56;5.30;95.40
14014;DHT22;49110;52.584;13.408;2024-01-30T05:52:57;5.30;95.30
14014;DHT22;49110;52.584;13.408;2024-01-30T05:53:57;5.30;95.20
14014;DHT22;49110;52.584;13.408;2024-01-30T05:54:58;5.40;95.20
14014;DHT22;49110;52.584;13.408;2024-01-30T05:56:00;5.30;95.20
14014;DHT22;49110;52.584;13.408;2024-01-30T05:57:01;5.30;95.20
14014;DHT22;49110;52.584;13.408;2024-01-30T05:58:02;5.40;95.20
14014;DHT22;49110;52.584;13.408;2024-01-30T05:59:02;5.30;95.00
14014;DHT22;49110;52.584;13.408;2024-01-30T06:00:04;5.30;95.00
14014;DHT22;49110;52.584;13.408;2024-01-30T06:01:08;5.30;95.10
14014;DHT22;49110;52.584;13.408;2024-01-30T06:02:10;5.30;95.10
14014;DHT22;49110;52.584;13.408;2024-01-30T06:03:11;5.20;95.10
14014;DHT22;49110;52.584;13.408;2024-01-30T06:04:11;5.20;95.20
14014;DHT22;49110;52.584;13.408;2024-01-30T06:05:12;5.30;95.30
14014;DHT22;49110;52.584;13.408;2024-01-30T06:06:12;5.30;95.20
14014;DHT22;49110;52.584;13.408;2024-01-30T06:07:13;5.40;95.20
14014;DHT22;49110;52.584;13.408;2024-01-30T06:08:13;5.40;95.10
14014;DHT22;49110;52.584;13.408;2024-01-30T06:09:14;5.40;95.10
14014;DHT22;49110;52.584;13.408;2024-01-30T06:10:14;5.40;95.00
14014;DHT22;49110;52.584;13.408;2024-01-30T06:11:15;5.40;95.00
14014;DHT22;49110;52.584;13.408;2024-01-30T06:12:15;5.40;95.00
14014;DHT22;49110;52.584;13.408;2024-01-30T06:13:16;5.40;95.10
14014;DHT22;49110;52.584;13.408;2024-01-30T06:14:16;5.40;95.10
14014;DHT22;49110;52.584;13.408;2024-01-30T06:15:17;5.50;95.20
14014;DHT22;49110;52.584;13.408;2024-01-30T06:16:17;5.50;95.10
14014;DHT22;49110;52.584;13.408;2024-01-30T06:17:20;5.40;95.00
14014;DHT22;49110;52.584;13.408;2024-01-30T06:18:20;5.50;95.00
14014;DHT22;49110;52.584;13.408;2024-01-30T06:19:21;5.50;95.10
14014;DHT22;49110;52.584;13.408;2024-01-30T06:20:21;5.40;95.00
14014;DHT22;49110;52.584;13.408;2024-01-30T06:21:22;5.50;95.10
14014;DHT22;49110;52.584;13.408;2024-01-30T06:22:22;5.50;95.00
14014;DHT22;49110;52.584;13.408;2024-01-30T06:23:23;5.60;95.00